sensor_id;sensor_type;location;lat;lon;timestamp;temperature;humidity
56240;DHT22;42154;51.992;5.896;2023-08-20T00:01:32;19.60;99.90
56240;DHT22;42154;51.992;5.896;2023-08-20T00:03:58;19.60;99.90
56240;DHT22;42154;51.992;5.896;2023-08-20T00:06:24;19.60;99.90
56240;DHT22;42154;51.992;5.896;2023-08-20T00:08:50;19.60;99.90
56240;DHT22;42154;51.992;5.896;2023-08-20T00:11:16;19.60;99.90
56240;DHT22;42154;51.992;5.896;2023-08-20T00:13:42;19.70;99.90
56240;DHT22;42154;51.992;5.896;2023-08-20T00:16:09;19.70;99.90
56240;DHT22;42154;51.992;5.896;2023-08-20T00:18:35;19.70;99.90
56240;DHT22;42154;51.992;5.896;2023-08-20T00:21:01;19.70;99.90
56240;DHT22;42154;51.992;5.896;2023-08-20T00:23:27;19.70;99.90
56240;DHT22;42154;51.992;5.896;2023-08-20T00:25:53;19.70;99.90
56240;DHT22;42154;51.992;5.896;2023-08-20T00:28:20;19.60;99.90
56240;DHT22;42154;51.992;5.896;2023-08-20T00:30:46;19.60;99.90
56240;DHT22;42154;51.992;5.896;2023-08-20T00:33:12;19.50;99.90
56240;DHT22;42154;51.992;5.896;2023-08-20T00:35:37;19.50;99.90
56240;DHT22;42154;51.992;5.896;2023-08-20T00:38:03;19.40;99.90
56240;DHT22;42154;51.992;5.896;2023-08-20T00:40:30;19.40;99.90
56240;DHT22;42154;51.992;5.896;2023-08-20T00:42:56;19.30;99.90
56240;DHT22;42154;51.992;5.896;2023-08-20T00:45:22;19.30;99.90
56240;DHT22;42154;51.992;5.896;2023-08-20T00:47:49;19.30;99.90
56240;DHT22;42154;51.992;5.896;2023-08-20T00:50:15;19.20;99.90
56240;DHT22;42154;51.992;5.896;2023-08-20T00:52:41;19.20;99.90
56240;DHT22;42154;51.992;5.896;2023-08-20T00:55:09;19.20;99.90
56240;DHT22;42154;51.992;5.896;2023-08-20T00:57:37;19.20;99.90
56240;DHT22;42154;51.992;5.896;2023-08-20T01:00:03;19.10;99.90
56240;DHT22;42154;51.992;5.896;2023-08-20T01:02:37;19.10;99.90
56240;DHT22;42154;51.992;5.896;2023-08-20T01:05:05;19.10;99.90
56240;DHT22;42154;51.992;5.896;2023-08-20T01:10:29;19.00;99.90
56240;DHT22;42154;51.992;5.896;2023-08-20T01:13:00;19.00;99.90
56240;DHT22;42154;51.992;5.896;2023-08-20T01:15:27;18.90;99.90
56240;DHT22;42154;51.992;5.896;2023-08-20T01:17:53;19.00;99.90
56240;DHT22;42154;51.992;5.896;2023-08-20T01:20:19;18.90;99.90
56240;DHT22;42154;51.992;5.896;2023-08-20T01:23:24;18.90;99.90
56240;DHT22;42154;51.992;5.896;2023-08-20T01:28:42;19.00;99.90
56240;DHT22;42154;51.992;5.896;2023-08-20T01:31:10;19.00;99.90
56240;DHT22;42154;51.992;5.896;2023-08-20T01:33:37;19.00;99.90
56240;DHT22;42154;51.992;5.896;2023-08-20T01:36:03;19.10;99.90
56240;DHT22;42154;51.992;5.896;2023-08-20T01:38:36;19.10;99.90
56240;DHT22;42154;51.992;5.896;2023-08-20T01:41:03;19.10;99.90
56240;DHT22;42154;51.992;5.896;2023-08-20T01:43:29;19.10;99.90
56240;DHT22;42154;51.992;5.896;2023-08-20T01:45:55;19.10;99.90
56240;DHT22;42154;51.992;5.896;2023-08-20T01:48:21;19.10;99.90
56240;DHT22;42154;51.992;5.896;2023-08-20T01:50:47;19.10;99.90
56240;DHT22;42154;51.992;5.896;2023-08-20T01:53:12;19.00;99.90
56240;DHT22;42154;51.992;5.896;2023-08-20T01:55:38;19.10;99.90
56240;DHT22;42154;51.992;5.896;2023-08-20T01:58:04;19.00;99.90
56240;DHT22;42154;51.992;5.896;2023-08-20T02:00:30;19.00;99.90
56240;DHT22;42154;51.992;5.896;2023-08-20T02:02:57;18.90;99.90
56240;DHT22;42154;51.992;5.896;2023-08-20T02:05:23;18.90;99.90
56240;DHT22;42154;51.992;5.896;2023-08-20T02:07:49;18.90;99.90
56240;DHT22;42154;51.992;5.896;2023-08-20T02:10:14;18.80;99.90
56240;DHT22;42154;51.992;5.896;2023-08-20T02:12:41;18.80;99.90
56240;DHT22;42154;51.992;5.896;2023-08-20T02:15:08;18.80;99.90
56240;DHT22;42154;51.992;5.896;2023-08-20T02:17:34;18.70;99.90
56240;DHT22;42154;51.992;5.896;2023-08-20T02:20:02;18.70;99.90
56240;DHT22;42154;51.992;5.896;2023-08-20T02:22:29;18.70;99.90
56240;DHT22;42154;51.992;5.896;2023-08-20T02:24:55;18.60;99.90
56240;DHT22;42154;51.992;5.896;2023-08-20T02:27:21;18.60;99.90
56240;DHT22;42154;51.992;5.896;2023-08-20T02:29:47;18.60;99.90
56240;DHT22;42154;51.992;5.896;2023-08-20T02:32:14;18.60;99.90
56240;DHT22;42154;51.992;5.896;2023-08-20T02:34:40;18.60;99.90
56240;DHT22;42154;51.992;5.896;2023-08-20T02:37:06;18.60;99.90
56240;DHT22;42154;51.992;5.896;2023-08-20T02:39:32;18.50;99.90
56240;DHT22;42154;51.992;5.896;2023-08-20T02:41:58;18.50;99.90
56240;DHT22;42154;51.992;5.896;2023-08-20T02:44:26;18.50;99.90
56240;DHT22;42154;51.992;5.896;2023-08-20T02:46:53;18.50;99.90
56240;DHT22;42154;51.992;5.896;2023-08-20T02:49:19;18.40;99.90
56240;DHT22;42154;51.992;5.896;2023-08-20T02:51:45;18.40;99.90
56240;DHT22;42154;51.992;5.896;2023-08-20T02:54:10;18.40;99.90
56240;DHT22;42154;51.992;5.896;2023-08-20T02:56:36;18.30;99.90
56240;DHT22;42154;51.992;5.896;2023-08-20T02:59:02;18.20;99.90
56240;DHT22;42154;51.992;5.896;2023-08-20T03:01:28;18.20;99.90
56240;DHT22;42154;51.992;5.896;2023-08-20T03:03:55;18.20;99.90
56240;DHT22;42154;51.992;5.896;2023-08-20T03:06:21;18.20;99.90
56240;DHT22;42154;51.992;5.896;2023-08-20T03:08:47;18.20;99.90
56240;DHT22;42154;51.992;5.896;2023-08-20T03:11:13;18.10;99.90
56240;DHT22;42154;51.992;5.896;2023-08-20T03:13:38;18.10;99.90
56240;DHT22;42154;51.992;5.896;2023-08-20T03:16:04;18.00;99.90
56240;DHT22;42154;51.992;5.896;2023-08-20T03:18:30;18.10;99.90
56240;DHT22;42154;51.992;5.896;2023-08-20T03:20:56;18.00;99.90
56240;DHT22;42154;51.992;5.896;2023-08-20T03:23:23;18.00;99.90
56240;DHT22;42154;51.992;5.896;2023-08-20T03:25:49;18.00;99.90
56240;DHT22;42154;51.992;5.896;2023-08-20T03:28:15;18.00;99.90
56240;DHT22;42154;51.992;5.896;2023-08-20T03:30:41;17.90;99.90
56240;DHT22;42154;51.992;5.896;2023-08-20T03:33:07;17.90;99.90
56240;DHT22;42154;51.992;5.896;2023-08-20T03:35:35;17.90;99.90
56240;DHT22;42154;51.992;5.896;2023-08-20T03:38:01;17.80;99.90
56240;DHT22;42154;51.992;5.896;2023-08-20T03:40:27;17.80;99.90
56240;DHT22;42154;51.992;5.896;2023-08-20T03:42:53;17.80;99.90
56240;DHT22;42154;51.992;5.896;2023-08-20T03:45:19;17.80;99.90
56240;DHT22;42154;51.992;5.896;2023-08-20T03:47:45;17.70;99.90
56240;DHT22;42154;51.992;5.896;2023-08-20T03:50:12;17.70;99.90
56240;DHT22;42154;51.992;5.896;2023-08-20T03:52:38;17.70;99.90
56240;DHT22;42154;51.992;5.896;2023-08-20T03:55:05;17.70;99.90
56240;DHT22;42154;51.992;5.896;2023-08-20T03:57:32;17.70;99.90
56240;DHT22;42154;51.992;5.896;2023-08-20T03:59:58;17.70;99.90
56240;DHT22;42154;51.992;5.896;2023-08-20T04:02:23;17.70;99.90
56240;DHT22;42154;51.992;5.896;2023-08-20T04:04:49;17.60;99.90
56240;DHT22;42154;51.992;5.896;2023-08-20T04:07:15;17.60;99.90
56240;DHT22;42154;51.992;5.896;2023-08-20T04:09:41;17.60;99.90
56240;DHT22;42154;51.992;5.896;2023-08-20T04:12:08;17.60;99.90
56240;DHT22;42154;51.992;5.896;2023-08-20T04:14:36;17.60;99.90
56240;DHT22;42154;51.992;5.896;2023-08-20T04:17:02;17.50;99.90
56240;DHT22;42154;51.992;5.896;2023-08-20T04:19:28;17.50;99.90
56240;DHT22;42154;51.992;5.896;2023-08-20T04:21:53;17.50;99.90
56240;DHT22;42154;51.992;5.896;2023-08-20T04:24:19;17.50;99.90
56240;DHT22;42154;51.992;5.896;2023-08-20T04:26:45;17.50;99.90
56240;DHT22;42154;51.992;5.896;2023-08-20T04:29:14;17.40;99.90
56240;DHT22;42154;51.992;5.896;2023-08-20T04:31:39;17.50;99.90
56240;DHT22;42154;51.992;5.896;2023-08-20T04:34:08;17.40;99.90
56240;DHT22;42154;51.992;5.896;2023-08-20T04:36:45;17.40;99.90
56240;DHT22;42154;51.992;5.896;2023-08-20T04:39:11;17.40;99.90
56240;DHT22;42154;51.992;5.896;2023-08-20T04:41:39;17.40;99.90
56240;DHT22;42154;51.992;5.896;2023-08-20T04:44:09;17.40;99.90
56240;DHT22;42154;51.992;5.896;2023-08-20T04:46:36;17.40;99.90
56240;DHT22;42154;51.992;5.896;2023-08-20T04:49:02;17.40;99.90
56240;DHT22;42154;51.992;5.896;2023-08-20T04:51:28;17.40;99.90
56240;DHT22;42154;51.992;5.896;2023-08-20T04:53:53;17.40;99.90
56240;DHT22;42154;51.992;5.896;2023-08-20T04:56:19;17.40;99.90
56240;DHT22;42154;51.992;5.896;2023-08-20T04:58:45;17.40;99.90
56240;DHT22;42154;51.992;5.896;2023-08-20T05:01:13;17.50;99.90
56240;DHT22;42154;51.992;5.896;2023-08-20T05:03:39;17.50;99.90
56240;DHT22;42154;51.992;5.896;2023-08-20T05:06:05;17.50;99.90
56240;DHT22;42154;51.992;5.896;2023-08-20T05:08:31;17.50;99.90
56240;DHT22;42154;51.992;5.896;2023-08-20T05:10:56;17.50;99.90
56240;DHT22;42154;51.992;5.896;2023-08-20T05:13:22;17.50;99.90
56240;DHT22;42154;51.992;5.896;2023-08-20T05:15:49;17.50;99.90
56240;DHT22;42154;51.992;5.896;2023-08-20T05:18:15;17.60;99.90
56240;DHT22;42154;51.992;5.896;2023-08-20T05:20:41;17.60;99.90
56240;DHT22;42154;51.992;5.896;2023-08-20T05:23:07;17.60;99.90
56240;DHT22;42154;51.992;5.896;2023-08-20T05:25:32;17.60;99.90
56240;DHT22;42154;51.992;5.896;2023-08-20T05:27:58;17.60;99.90
56240;DHT22;42154;51.992;5.896;2023-08-20T05:30:26;17.70;99.90
56240;DHT22;42154;51.992;5.896;2023-08-20T05:32:51;17.70;99.90
56240;DHT22;42154;51.992;5.896;2023-08-20T05:35:17;17.70;99.90
56240;DHT22;42154;51.992;5.896;2023-08-20T05:37:43;17.80;99.90
56240;DHT22;42154;51.992;5.896;2023-08-20T05:40:09;17.80;99.90
56240;DHT22;42154;51.992;5.896;2023-08-20T05:42:35;17.90;99.90
56240;DHT22;42154;51.992;5.896;2023-08-20T05:45:05;17.90;99.90
56240;DHT22;42154;51.992;5.896;2023-08-20T05:47:32;17.90;99.90
56240;DHT22;42154;51.992;5.896;2023-08-20T05:49:58;18.00;99.90
56240;DHT22;42154;51.992;5.896;2023-08-20T05:52:24;18.00;99.90
56240;DHT22;42154;51.992;5.896;2023-08-20T05:54:49;18.10;99.90
56240;DHT22;42154;51.992;5.896;2023-08-20T05:57:15;18.20;99.90
56240;DHT22;42154;51.992;5.896;2023-08-20T05:59:42;18.20;99.90
56240;DHT22;42154;51.992;5.896;2023-08-20T06:02:08;18.30;99.90
56240;DHT22;42154;51.992;5.896;2023-08-20T06:04:34;18.40;99.90
56240;DHT22;42154;51.992;5.896;2023-08-20T06:07:00;18.50;99.90
56240;DHT22;42154;51.992;5.896;2023-08-20T06:09:25;18.60;99.90
56240;DHT22;42154;51.992;5.896;2023-08-20T06:11:51;18.80;99.90
56240;DHT22;42154;51.992;5.896;2023-08-20T06:14:17;19.00;99.90
56240;DHT22;42154;51.992;5.896;2023-08-20T06:16:42;19.10;99.90
56240;DHT22;42154;51.992;5.896;2023-08-20T06:19:09;19.20;99.90
56240;DHT22;42154;51.992;5.896;2023-08-20T06:21:35;19.30;99.90
56240;DHT22;42154;51.992;5.896;2023-08-20T06:24:01;19.30;99.90
56240;DHT22;42154;51.992;5.896;2023-08-20T06:26:27;19.30;99.90
56240;DHT22;42154;51.992;5.896;2023-08-20T06:28:52;19.40;99.90
56240;DHT22;42154;51.992;5.896;2023-08-20T06:31:18;19.40;99.90
56240;DHT22;42154;51.992;5.896;2023-08-20T06:33:44;19.50;99.90
56240;DHT22;42154;51.992;5.896;2023-08-20T06:36:10;19.50;99.90
56240;DHT22;42154;51.992;5.896;2023-08-20T06:38:35;19.60;99.90
56240;DHT22;42154;51.992;5.896;2023-08-20T06:41:01;19.60;99.90
56240;DHT22;42154;51.992;5.896;2023-08-20T06:43:27;19.70;99.90
56240;DHT22;42154;51.992;5.896;2023-08-20T06:45:53;19.70;99.90
56240;DHT22;42154;51.992;5.896;2023-08-20T06:48:19;19.70;99.90
56240;DHT22;42154;51.992;5.896;2023-08-20T06:50:46;19.80;99.90
56240;DHT22;42154;51.992;5.896;2023-08-20T06:53:11;19.90;99.90
56240;DHT22;42154;51.992;5.896;2023-08-20T06:55:37;20.10;99.90
56240;DHT22;42154;51.992;5.896;2023-08-20T06:58:03;20.10;99.90
56240;DHT22;42154;51.992;5.896;2023-08-20T07:00:29;20.20;99.90
56240;DHT22;42154;51.992;5.896;2023-08-20T07:02:54;20.30;99.90
56240;DHT22;42154;51.992;5.896;2023-08-20T07:05:20;20.30;99.90
56240;DHT22;42154;51.992;5.896;2023-08-20T07:07:46;20.40;99.90
56240;DHT22;42154;51.992;5.896;2023-08-20T07:10:12;20.50;99.90
56240;DHT22;42154;51.992;5.896;2023-08-20T07:12:38;20.50;99.90
56240;DHT22;42154;51.992;5.896;2023-08-20T07:15:05;20.60;99.90
56240;DHT22;42154;51.992;5.896;2023-08-20T07:17:31;20.60;99.90
56240;DHT22;42154;51.992;5.896;2023-08-20T07:19:56;20.70;99.90
56240;DHT22;42154;51.992;5.896;2023-08-20T07:22:22;20.70;99.90
56240;DHT22;42154;51.992;5.896;2023-08-20T07:24:48;20.70;99.90
56240;DHT22;42154;51.992;5.896;2023-08-20T07:27:14;20.70;99.90
56240;DHT22;42154;51.992;5.896;2023-08-20T07:29:41;20.80;99.90
56240;DHT22;42154;51.992;5.896;2023-08-20T07:32:07;20.80;99.90
56240;DHT22;42154;51.992;5.896;2023-08-20T07:34:33;20.90;99.90
56240;DHT22;42154;51.992;5.896;2023-08-20T07:37:00;20.90;99.90
56240;DHT22;42154;51.992;5.896;2023-08-20T07:39:26;21.00;99.90
56240;DHT22;42154;51.992;5.896;2023-08-20T07:41:52;21.10;99.90
56240;DHT22;42154;51.992;5.896;2023-08-20T07:44:17;21.20;99.90
56240;DHT22;42154;51.992;5.896;2023-08-20T07:46:43;21.20;99.90
56240;DHT22;42154;51.992;5.896;2023-08-20T07:49:09;21.30;99.90
56240;DHT22;42154;51.992;5.896;2023-08-20T07:51:35;21.30;99.90
56240;DHT22;42154;51.992;5.896;2023-08-20T07:54:00;21.40;99.90
56240;DHT22;42154;51.992;5.896;2023-08-20T07:56:26;21.50;99.90
56240;DHT22;42154;51.992;5.896;2023-08-20T07:58:52;21.40;99.90
56240;DHT22;42154;51.992;5.896;2023-08-20T08:01:18;21.50;99.90
56240;DHT22;42154;51.992;5.896;2023-08-20T08:03:43;21.60;99.90
56240;DHT22;42154;51.992;5.896;2023-08-20T08:06:09;21.70;99.90
56240;DHT22;42154;51.992;5.896;2023-08-20T08:08:35;21.70;99.90
56240;DHT22;42154;51.992;5.896;2023-08-20T08:11:00;21.70;99.90
56240;DHT22;42154;51.992;5.896;2023-08-20T08:13:26;21.80;99.90
56240;DHT22;42154;51.992;5.896;2023-08-20T08:15:52;21.90;99.90
56240;DHT22;42154;51.992;5.896;2023-08-20T08:18:19;21.90;99.90
56240;DHT22;42154;51.992;5.896;2023-08-20T08:20:45;22.00;99.90
56240;DHT22;42154;51.992;5.896;2023-08-20T08:23:11;22.00;99.90
56240;DHT22;42154;51.992;5.896;2023-08-20T08:25:37;22.10;99.90
56240;DHT22;42154;51.992;5.896;2023-08-20T08:28:04;22.10;99.90
56240;DHT22;42154;51.992;5.896;2023-08-20T08:30:30;22.20;99.90
56240;DHT22;42154;51.992;5.896;2023-08-20T08:32:55;22.20;99.90
56240;DHT22;42154;51.992;5.896;2023-08-20T08:35:21;22.30;99.90
56240;DHT22;42154;51.992;5.896;2023-08-20T08:37:47;22.30;99.90
56240;DHT22;42154;51.992;5.896;2023-08-20T08:40:13;22.40;99.90
56240;DHT22;42154;51.992;5.896;2023-08-20T08:42:40;22.50;99.90
56240;DHT22;42154;51.992;5.896;2023-08-20T08:45:06;22.50;99.90
56240;DHT22;42154;51.992;5.896;2023-08-20T08:47:32;22.60;99.90
56240;DHT22;42154;51.992;5.896;2023-08-20T08:49:59;22.70;99.90
56240;DHT22;42154;51.992;5.896;2023-08-20T08:52:25;22.70;99.90
56240;DHT22;42154;51.992;5.896;2023-08-20T08:54:52;22.80;99.90
56240;DHT22;42154;51.992;5.896;2023-08-20T08:57:18;22.80;99.90
56240;DHT22;42154;51.992;5.896;2023-08-20T08:59:44;22.90;99.90
56240;DHT22;42154;51.992;5.896;2023-08-20T09:02:11;22.90;99.90
56240;DHT22;42154;51.992;5.896;2023-08-20T09:04:41;23.00;99.90
56240;DHT22;42154;51.992;5.896;2023-08-20T09:07:14;23.10;99.90
56240;DHT22;42154;51.992;5.896;2023-08-20T09:09:44;23.30;99.90
56240;DHT22;42154;51.992;5.896;2023-08-20T09:12:19;23.30;99.90
56240;DHT22;42154;51.992;5.896;2023-08-20T09:14:49;23.30;99.90
56240;DHT22;42154;51.992;5.896;2023-08-20T09:17:15;23.40;99.90
56240;DHT22;42154;51.992;5.896;2023-08-20T09:19:43;23.40;99.90
56240;DHT22;42154;51.992;5.896;2023-08-20T09:22:14;23.40;99.90
56240;DHT22;42154;51.992;5.896;2023-08-20T09:24:44;23.40;99.90
56240;DHT22;42154;51.992;5.896;2023-08-20T09:27:11;23.50;99.90
56240;DHT22;42154;51.992;5.896;2023-08-20T09:29:53;23.60;99.90
56240;DHT22;42154;51.992;5.896;2023-08-20T09:32:22;23.60;99.90
56240;DHT22;42154;51.992;5.896;2023-08-20T09:34:49;23.70;99.90
56240;DHT22;42154;51.992;5.896;2023-08-20T09:37:17;23.70;99.90
56240;DHT22;42154;51.992;5.896;2023-08-20T09:39:43;23.80;99.90
56240;DHT22;42154;51.992;5.896;2023-08-20T09:42:10;23.80;99.90
56240;DHT22;42154;51.992;5.896;2023-08-20T09:44:40;23.90;99.90
56240;DHT22;42154;51.992;5.896;2023-08-20T09:47:08;24.00;99.90
56240;DHT22;42154;51.992;5.896;2023-08-20T09:49:41;24.00;99.90
56240;DHT22;42154;51.992;5.896;2023-08-20T09:52:09;24.10;99.90
56240;DHT22;42154;51.992;5.896;2023-08-20T09:57:41;24.20;99.90
56240;DHT22;42154;51.992;5.896;2023-08-20T10:00:11;24.30;99.90
56240;DHT22;42154;51.992;5.896;2023-08-20T10:02:41;24.30;99.90
56240;DHT22;42154;51.992;5.896;2023-08-20T10:05:08;24.30;99.90
56240;DHT22;42154;51.992;5.896;2023-08-20T10:07:35;24.40;99.90
56240;DHT22;42154;51.992;5.896;2023-08-20T10:10:06;24.50;99.90
56240;DHT22;42154;51.992;5.896;2023-08-20T10:12:33;24.60;99.90
56240;DHT22;42154;51.992;5.896;2023-08-20T10:15:00;24.60;99.90
56240;DHT22;42154;51.992;5.896;2023-08-20T10:17:29;24.70;99.90
56240;DHT22;42154;51.992;5.896;2023-08-20T10:19:57;24.70;99.90
56240;DHT22;42154;51.992;5.896;2023-08-20T10:22:38;24.80;99.90
56240;DHT22;42154;51.992;5.896;2023-08-20T10:25:33;24.90;99.90
56240;DHT22;42154;51.992;5.896;2023-08-20T10:28:24;24.90;99.90
56240;DHT22;42154;51.992;5.896;2023-08-20T10:31:07;24.90;99.90
56240;DHT22;42154;51.992;5.896;2023-08-20T10:36:17;25.10;99.90
56240;DHT22;42154;51.992;5.896;2023-08-20T10:38:47;25.20;99.90
56240;DHT22;42154;51.992;5.896;2023-08-20T10:41:13;25.20;99.90
56240;DHT22;42154;51.992;5.896;2023-08-20T10:43:49;25.30;99.90
56240;DHT22;42154;51.992;5.896;2023-08-20T10:46:19;25.30;99.90
56240;DHT22;42154;51.992;5.896;2023-08-20T10:48:49;25.40;99.90
56240;DHT22;42154;51.992;5.896;2023-08-20T10:53:48;25.40;99.90
56240;DHT22;42154;51.992;5.896;2023-08-20T10:56:15;25.50;99.90
56240;DHT22;42154;51.992;5.896;2023-08-20T10:58:46;25.50;99.90
56240;DHT22;42154;51.992;5.896;2023-08-20T11:01:13;25.60;99.90
56240;DHT22;42154;51.992;5.896;2023-08-20T11:03:42;25.60;99.40
56240;DHT22;42154;51.992;5.896;2023-08-20T11:06:08;25.60;99.60
56240;DHT22;42154;51.992;5.896;2023-08-20T11:08:34;25.70;99.80
56240;DHT22;42154;51.992;5.896;2023-08-20T11:11:00;25.80;99.90
56240;DHT22;42154;51.992;5.896;2023-08-20T11:13:27;25.90;99.70
56240;DHT22;42154;51.992;5.896;2023-08-20T11:15:52;26.10;99.20
56240;DHT22;42154;51.992;5.896;2023-08-20T11:18:18;26.10;99.10
56240;DHT22;42154;51.992;5.896;2023-08-20T11:20:44;26.20;99.00
56240;DHT22;42154;51.992;5.896;2023-08-20T11:23:10;26.30;98.30
56240;DHT22;42154;51.992;5.896;2023-08-20T11:25:43;26.30;98.30
56240;DHT22;42154;51.992;5.896;2023-08-20T11:28:09;26.40;98.30
56240;DHT22;42154;51.992;5.896;2023-08-20T11:30:35;26.30;97.30
56240;DHT22;42154;51.992;5.896;2023-08-20T11:33:01;26.30;97.40
56240;DHT22;42154;51.992;5.896;2023-08-20T11:35:28;26.40;97.10
56240;DHT22;42154;51.992;5.896;2023-08-20T11:37:54;26.40;96.90
56240;DHT22;42154;51.992;5.896;2023-08-20T11:40:22;26.40;96.30
56240;DHT22;42154;51.992;5.896;2023-08-20T11:42:48;26.40;96.50
56240;DHT22;42154;51.992;5.896;2023-08-20T11:45:14;26.40;96.70
56240;DHT22;42154;51.992;5.896;2023-08-20T11:47:41;26.50;96.40
56240;DHT22;42154;51.992;5.896;2023-08-20T11:50:08;26.50;96.40
56240;DHT22;42154;51.992;5.896;2023-08-20T11:52:36;26.50;96.20
56240;DHT22;42154;51.992;5.896;2023-08-20T11:55:02;26.50;96.10
56240;DHT22;42154;51.992;5.896;2023-08-20T11:57:29;26.50;96.10
56240;DHT22;42154;51.992;5.896;2023-08-20T11:59:58;26.60;96.20
56240;DHT22;42154;51.992;5.896;2023-08-20T12:02:26;26.60;96.30
56240;DHT22;42154;51.992;5.896;2023-08-20T12:04:55;26.70;96.00
56240;DHT22;42154;51.992;5.896;2023-08-20T12:07:25;26.70;96.00
56240;DHT22;42154;51.992;5.896;2023-08-20T12:09:55;26.70;96.10
56240;DHT22;42154;51.992;5.896;2023-08-20T12:12:21;26.80;96.10
56240;DHT22;42154;51.992;5.896;2023-08-20T12:14:47;26.80;95.50
56240;DHT22;42154;51.992;5.896;2023-08-20T12:17:20;26.90;95.80
56240;DHT22;42154;51.992;5.896;2023-08-20T12:19:46;27.00;95.80
56240;DHT22;42154;51.992;5.896;2023-08-20T12:22:12;27.00;95.90
56240;DHT22;42154;51.992;5.896;2023-08-20T12:24:38;27.10;95.80
56240;DHT22;42154;51.992;5.896;2023-08-20T12:27:04;27.10;95.80
56240;DHT22;42154;51.992;5.896;2023-08-20T12:29:30;27.10;95.30
56240;DHT22;42154;51.992;5.896;2023-08-20T12:31:56;27.10;95.40
56240;DHT22;42154;51.992;5.896;2023-08-20T12:34:21;27.20;95.20
56240;DHT22;42154;51.992;5.896;2023-08-20T12:36:49;27.20;95.00
56240;DHT22;42154;51.992;5.896;2023-08-20T12:39:15;27.20;94.60
56240;DHT22;42154;51.992;5.896;2023-08-20T12:41:41;27.20;94.60
56240;DHT22;42154;51.992;5.896;2023-08-20T12:44:07;27.20;94.70
56240;DHT22;42154;51.992;5.896;2023-08-20T12:46:33;27.20;94.40
56240;DHT22;42154;51.992;5.896;2023-08-20T12:48:58;27.30;94.40
56240;DHT22;42154;51.992;5.896;2023-08-20T12:51:24;27.30;94.30
56240;DHT22;42154;51.992;5.896;2023-08-20T12:53:50;27.30;94.60
56240;DHT22;42154;51.992;5.896;2023-08-20T12:56:16;27.40;94.60
56240;DHT22;42154;51.992;5.896;2023-08-20T12:58:42;27.40;94.10
56240;DHT22;42154;51.992;5.896;2023-08-20T13:01:08;27.30;94.30
56240;DHT22;42154;51.992;5.896;2023-08-20T13:03:34;27.20;94.10
56240;DHT22;42154;51.992;5.896;2023-08-20T13:06:00;27.10;94.50
56240;DHT22;42154;51.992;5.896;2023-08-20T13:08:26;27.00;94.10
56240;DHT22;42154;51.992;5.896;2023-08-20T13:10:56;26.90;93.60
56240;DHT22;42154;51.992;5.896;2023-08-20T13:13:24;27.00;93.90
56240;DHT22;42154;51.992;5.896;2023-08-20T13:15:53;27.10;94.10
56240;DHT22;42154;51.992;5.896;2023-08-20T13:18:20;27.10;94.00
56240;DHT22;42154;51.992;5.896;2023-08-20T13:20:51;27.10;93.80
56240;DHT22;42154;51.992;5.896;2023-08-20T13:23:18;27.10;93.60
56240;DHT22;42154;51.992;5.896;2023-08-20T13:25:43;26.90;93.80
56240;DHT22;42154;51.992;5.896;2023-08-20T13:28:09;26.80;94.10
56240;DHT22;42154;51.992;5.896;2023-08-20T13:30:35;26.70;94.00
56240;DHT22;42154;51.992;5.896;2023-08-20T13:33:01;26.80;94.40
56240;DHT22;42154;51.992;5.896;2023-08-20T13:35:26;26.80;94.40
56240;DHT22;42154;51.992;5.896;2023-08-20T13:37:52;26.90;93.80
56240;DHT22;42154;51.992;5.896;2023-08-20T13:40:18;27.10;93.90
56240;DHT22;42154;51.992;5.896;2023-08-20T13:42:44;27.20;93.70
56240;DHT22;42154;51.992;5.896;2023-08-20T13:45:09;27.40;93.40
56240;DHT22;42154;51.992;5.896;2023-08-20T13:47:35;27.40;93.20
56240;DHT22;42154;51.992;5.896;2023-08-20T13:50:01;27.50;92.90
56240;DHT22;42154;51.992;5.896;2023-08-20T13:52:30;27.50;92.80
56240;DHT22;42154;51.992;5.896;2023-08-20T13:54:56;27.50;92.40
56240;DHT22;42154;51.992;5.896;2023-08-20T13:57:21;27.50;92.80
56240;DHT22;42154;51.992;5.896;2023-08-20T13:59:47;27.60;93.00
56240;DHT22;42154;51.992;5.896;2023-08-20T14:02:13;27.60;93.10
56240;DHT22;42154;51.992;5.896;2023-08-20T14:04:38;27.50;93.10
56240;DHT22;42154;51.992;5.896;2023-08-20T14:07:04;27.50;92.90
56240;DHT22;42154;51.992;5.896;2023-08-20T14:09:30;27.30;93.10
56240;DHT22;42154;51.992;5.896;2023-08-20T14:11:56;27.30;93.20
56240;DHT22;42154;51.992;5.896;2023-08-20T14:14:21;27.40;92.70
56240;DHT22;42154;51.992;5.896;2023-08-20T14:16:56;27.40;92.30
56240;DHT22;42154;51.992;5.896;2023-08-20T14:19:22;27.40;92.40
56240;DHT22;42154;51.992;5.896;2023-08-20T14:21:48;27.50;92.40
56240;DHT22;42154;51.992;5.896;2023-08-20T14:24:13;27.50;92.40
56240;DHT22;42154;51.992;5.896;2023-08-20T14:26:39;27.60;92.50
56240;DHT22;42154;51.992;5.896;2023-08-20T14:29:05;27.70;92.40
56240;DHT22;42154;51.992;5.896;2023-08-20T14:31:31;27.70;92.10
56240;DHT22;42154;51.992;5.896;2023-08-20T14:34:00;27.80;92.10
56240;DHT22;42154;51.992;5.896;2023-08-20T14:36:27;27.80;91.30
56240;DHT22;42154;51.992;5.896;2023-08-20T14:38:53;27.70;91.40
56240;DHT22;42154;51.992;5.896;2023-08-20T14:41:19;27.80;91.60
56240;DHT22;42154;51.992;5.896;2023-08-20T14:43:44;27.90;91.60
56240;DHT22;42154;51.992;5.896;2023-08-20T14:46:10;28.00;91.20
56240;DHT22;42154;51.992;5.896;2023-08-20T14:48:36;28.10;91.30
56240;DHT22;42154;51.992;5.896;2023-08-20T14:51:06;28.20;91.20
56240;DHT22;42154;51.992;5.896;2023-08-20T14:53:32;28.30;90.90
56240;DHT22;42154;51.992;5.896;2023-08-20T14:55:58;28.30;90.90
56240;DHT22;42154;51.992;5.896;2023-08-20T14:58:23;28.30;91.10
56240;DHT22;42154;51.992;5.896;2023-08-20T15:00:49;28.30;91.30
56240;DHT22;42154;51.992;5.896;2023-08-20T15:03:15;28.30;91.60
56240;DHT22;42154;51.992;5.896;2023-08-20T15:05:42;28.30;91.80
56240;DHT22;42154;51.992;5.896;2023-08-20T15:08:07;28.40;91.50
56240;DHT22;42154;51.992;5.896;2023-08-20T15:10:33;28.30;91.20
56240;DHT22;42154;51.992;5.896;2023-08-20T15:12:59;28.20;91.50
56240;DHT22;42154;51.992;5.896;2023-08-20T15:15:24;28.00;91.40
56240;DHT22;42154;51.992;5.896;2023-08-20T15:17:54;27.80;91.30
56240;DHT22;42154;51.992;5.896;2023-08-20T15:20:20;27.70;91.80
56240;DHT22;42154;51.992;5.896;2023-08-20T15:22:46;27.60;91.80
56240;DHT22;42154;51.992;5.896;2023-08-20T15:25:11;27.50;91.90
56240;DHT22;42154;51.992;5.896;2023-08-20T15:27:38;27.40;92.30
56240;DHT22;42154;51.992;5.896;2023-08-20T15:30:04;27.40;92.40
56240;DHT22;42154;51.992;5.896;2023-08-20T15:32:30;27.40;92.40
56240;DHT22;42154;51.992;5.896;2023-08-20T15:34:56;27.40;92.50
56240;DHT22;42154;51.992;5.896;2023-08-20T15:37:22;27.30;92.60
56240;DHT22;42154;51.992;5.896;2023-08-20T15:39:48;27.20;92.70
56240;DHT22;42154;51.992;5.896;2023-08-20T15:42:14;27.30;93.10